Airfield :
LOGIN :

Register | Disclaimer

   EN    FR    IT 

 










Legend :    VFR   Marginal VFR   IFR   Intensive IFR   Very Intensive IFR
Visi :
Ceiling :
>= 8 km
>= 3000ft
5 to 8 km
1000 to 3000 ft
1500m to 5 km
500 to 1000 ft
800 to 1500m
200 to 500 ft
< 800m
< 200 ft
Symbols :   Thunderstorms  Fog  Heavy snow  Heavy precipitations  Wind > 20 kt
SIGMETs :     Misc.  Thunderstorms  Icing  Turbulence  Mountain Waves  Volcanic Ashes







- Airport Elevation : 268 ft
- IATA code : BFS
- Download approach charts


EGAA - Belfast Aldergrove

CURRENT METAR :
  • 121550Z 14016G26KT 9999 BKN010 09/07 Q1011

EXPIRED METARs :
  • 121520Z 13013KT 9999 -RA BKN011 09/07 Q1011
  • 121450Z 13012KT 9999 SCT011 BKN016 09/07 Q1011
  • 121420Z 14014KT 9999 BKN011 09/07 Q1012
  • 121350Z 14012KT 9999 SCT009 BKN013 09/08 Q1012
  • 121320Z 13013KT 9999 SCT007 BKN011 09/08 Q1012

TAF TAF EGAA
Valid from the 12 at 12:00 until the 13 at 12:00 UTC


121052Z 1212/1312 14013KT 9999 SCT012 BKN025
TEMPO 1212/1216 7000 RA -RADZ BKN008
PROB30
TEMPO 1212/1216 4000 RADZ
BECMG 1216/1219 14018G30KT
PROB30
TEMPO 1216/1220 7000 RA -RADZ BKN014
BECMG 1309/1312 13015KT
No reported NOTAMs for that airfield.



MET'MAP, your aeronautical weather chart ! - Copyright ORBIFLY December 2007 - Disclaimer

ORBIFLY MET'MAP TEAM :

Programming & Development : Alexandra Zaïnal
Concept & Development : Baudouin d'Aumeries
Co-Development & Prog : Marc-Olivier Méhu
Technical & hardware support : Manuel Goepfert

Contact : metmap@orbifly.com




SOURCES & CREDITS :

   NOAA